sensor_id;sensor_type;location;lat;lon;timestamp;P1;durP1;ratioP1;P2;durP2;ratioP2
51451;SDS011;37521;52.020;-1.740;2023-09-19T00:00:50;2.40;;;0.77;;
51451;SDS011;37521;52.020;-1.740;2023-09-19T00:03:24;0.50;;;0.30;;
51451;SDS011;37521;52.020;-1.740;2023-09-19T00:05:53;2.33;;;0.50;;
51451;SDS011;37521;52.020;-1.740;2023-09-19T00:08:22;1.90;;;0.47;;
51451;SDS011;37521;52.020;-1.740;2023-09-19T00:10:50;2.25;;;0.73;;
51451;SDS011;37521;52.020;-1.740;2023-09-19T00:13:20;0.80;;;0.43;;
51451;SDS011;37521;52.020;-1.740;2023-09-19T00:15:48;1.15;;;0.60;;
51451;SDS011;37521;52.020;-1.740;2023-09-19T00:18:19;1.23;;;0.55;;
51451;SDS011;37521;52.020;-1.740;2023-09-19T00:20:49;1.33;;;0.50;;
51451;SDS011;37521;52.020;-1.740;2023-09-19T00:23:19;6.53;;;0.98;;
51451;SDS011;37521;52.020;-1.740;2023-09-19T00:25:48;1.88;;;0.75;;
51451;SDS011;37521;52.020;-1.740;2023-09-19T00:28:17;2.05;;;0.80;;
51451;SDS011;37521;52.020;-1.740;2023-09-19T00:30:46;1.50;;;0.68;;
51451;SDS011;37521;52.020;-1.740;2023-09-19T00:33:19;2.03;;;0.75;;
51451;SDS011;37521;52.020;-1.740;2023-09-19T00:35:48;1.85;;;0.60;;
51451;SDS011;37521;52.020;-1.740;2023-09-19T00:38:16;1.92;;;0.75;;
51451;SDS011;37521;52.020;-1.740;2023-09-19T00:40:48;1.92;;;0.63;;
51451;SDS011;37521;52.020;-1.740;2023-09-19T00:43:17;4.40;;;0.90;;
51451;SDS011;37521;52.020;-1.740;2023-09-19T00:45:46;3.35;;;0.73;;
51451;SDS011;37521;52.020;-1.740;2023-09-19T00:48:20;4.32;;;1.50;;
51451;SDS011;37521;52.020;-1.740;2023-09-19T00:50:50;1.38;;;0.60;;
51451;SDS011;37521;52.020;-1.740;2023-09-19T00:53:21;1.10;;;0.70;;
51451;SDS011;37521;52.020;-1.740;2023-09-19T00:55:54;1.50;;;0.63;;
51451;SDS011;37521;52.020;-1.740;2023-09-19T00:58:24;0.52;;;0.30;;
51451;SDS011;37521;52.020;-1.740;2023-09-19T01:00:52;1.98;;;0.70;;
51451;SDS011;37521;52.020;-1.740;2023-09-19T01:03:23;2.83;;;0.90;;
51451;SDS011;37521;52.020;-1.740;2023-09-19T01:05:52;4.35;;;0.50;;
51451;SDS011;37521;52.020;-1.740;2023-09-19T01:08:21;3.50;;;0.95;;
51451;SDS011;37521;52.020;-1.740;2023-09-19T01:10:51;3.25;;;1.23;;
51451;SDS011;37521;52.020;-1.740;2023-09-19T01:13:22;2.65;;;0.57;;
51451;SDS011;37521;52.020;-1.740;2023-09-19T01:15:59;2.70;;;0.73;;
51451;SDS011;37521;52.020;-1.740;2023-09-19T01:18:46;4.80;;;1.13;;
51451;SDS011;37521;52.020;-1.740;2023-09-19T01:21:26;0.93;;;0.90;;
51451;SDS011;37521;52.020;-1.740;2023-09-19T01:24:04;6.88;;;1.40;;
51451;SDS011;37521;52.020;-1.740;2023-09-19T01:27:15;4.68;;;0.63;;
51451;SDS011;37521;52.020;-1.740;2023-09-19T01:30:02;2.50;;;0.70;;
51451;SDS011;37521;52.020;-1.740;2023-09-19T01:32:35;2.00;;;0.80;;
51451;SDS011;37521;52.020;-1.740;2023-09-19T01:35:06;2.70;;;0.93;;
51451;SDS011;37521;52.020;-1.740;2023-09-19T01:37:38;2.15;;;0.60;;
51451;SDS011;37521;52.020;-1.740;2023-09-19T01:40:11;1.35;;;0.82;;
51451;SDS011;37521;52.020;-1.740;2023-09-19T01:42:44;2.27;;;0.73;;
51451;SDS011;37521;52.020;-1.740;2023-09-19T01:45:22;2.08;;;0.77;;
51451;SDS011;37521;52.020;-1.740;2023-09-19T01:48:02;1.55;;;0.80;;
51451;SDS011;37521;52.020;-1.740;2023-09-19T01:50:42;3.78;;;1.30;;
51451;SDS011;37521;52.020;-1.740;2023-09-19T01:53:21;1.20;;;0.80;;
51451;SDS011;37521;52.020;-1.740;2023-09-19T01:55:55;7.53;;;1.40;;
51451;SDS011;37521;52.020;-1.740;2023-09-19T01:58:26;2.33;;;0.93;;
51451;SDS011;37521;52.020;-1.740;2023-09-19T02:01:01;1.40;;;0.50;;
51451;SDS011;37521;52.020;-1.740;2023-09-19T02:03:33;3.85;;;0.65;;
51451;SDS011;37521;52.020;-1.740;2023-09-19T02:06:03;2.72;;;0.82;;
51451;SDS011;37521;52.020;-1.740;2023-09-19T02:08:38;2.10;;;0.63;;
51451;SDS011;37521;52.020;-1.740;2023-09-19T02:11:07;5.72;;;1.02;;
51451;SDS011;37521;52.020;-1.740;2023-09-19T02:13:35;2.47;;;0.73;;
51451;SDS011;37521;52.020;-1.740;2023-09-19T02:16:06;2.15;;;0.80;;
51451;SDS011;37521;52.020;-1.740;2023-09-19T02:21:07;0.63;;;0.52;;
51451;SDS011;37521;52.020;-1.740;2023-09-19T02:23:37;2.60;;;0.65;;
51451;SDS011;37521;52.020;-1.740;2023-09-19T02:26:06;2.15;;;0.90;;
51451;SDS011;37521;52.020;-1.740;2023-09-19T02:28:35;2.97;;;0.57;;
51451;SDS011;37521;52.020;-1.740;2023-09-19T02:31:03;3.50;;;0.80;;
51451;SDS011;37521;52.020;-1.740;2023-09-19T02:33:34;4.97;;;0.98;;
51451;SDS011;37521;52.020;-1.740;2023-09-19T02:36:04;0.73;;;0.57;;
51451;SDS011;37521;52.020;-1.740;2023-09-19T02:38:34;1.67;;;0.80;;
51451;SDS011;37521;52.020;-1.740;2023-09-19T02:41:04;6.47;;;2.72;;
51451;SDS011;37521;52.020;-1.740;2023-09-19T02:43:32;3.13;;;0.70;;
51451;SDS011;37521;52.020;-1.740;2023-09-19T02:46:03;3.05;;;0.85;;
51451;SDS011;37521;52.020;-1.740;2023-09-19T02:48:34;2.72;;;1.00;;
51451;SDS011;37521;52.020;-1.740;2023-09-19T02:51:02;5.80;;;1.50;;
51451;SDS011;37521;52.020;-1.740;2023-09-19T02:53:31;2.50;;;1.00;;
51451;SDS011;37521;52.020;-1.740;2023-09-19T02:56:00;6.28;;;0.85;;
51451;SDS011;37521;52.020;-1.740;2023-09-19T02:58:30;4.03;;;0.68;;
51451;SDS011;37521;52.020;-1.740;2023-09-19T03:01:07;3.00;;;0.77;;
51451;SDS011;37521;52.020;-1.740;2023-09-19T03:03:39;3.13;;;1.05;;
51451;SDS011;37521;52.020;-1.740;2023-09-19T03:06:08;6.53;;;1.90;;
51451;SDS011;37521;52.020;-1.740;2023-09-19T03:08:36;4.15;;;0.93;;
51451;SDS011;37521;52.020;-1.740;2023-09-19T03:11:06;4.97;;;1.15;;
51451;SDS011;37521;52.020;-1.740;2023-09-19T03:16:10;3.88;;;1.08;;
51451;SDS011;37521;52.020;-1.740;2023-09-19T03:18:43;3.10;;;1.10;;
51451;SDS011;37521;52.020;-1.740;2023-09-19T03:21:12;2.03;;;0.57;;
51451;SDS011;37521;52.020;-1.740;2023-09-19T03:23:41;2.83;;;0.57;;
51451;SDS011;37521;52.020;-1.740;2023-09-19T03:26:12;1.50;;;0.93;;
51451;SDS011;37521;52.020;-1.740;2023-09-19T03:28:42;2.53;;;0.70;;
51451;SDS011;37521;52.020;-1.740;2023-09-19T03:31:13;1.98;;;0.52;;
51451;SDS011;37521;52.020;-1.740;2023-09-19T03:33:43;1.92;;;0.55;;
51451;SDS011;37521;52.020;-1.740;2023-09-19T03:36:12;2.30;;;0.75;;
51451;SDS011;37521;52.020;-1.740;2023-09-19T03:38:41;5.75;;;0.90;;
51451;SDS011;37521;52.020;-1.740;2023-09-19T03:41:10;1.50;;;0.70;;
51451;SDS011;37521;52.020;-1.740;2023-09-19T03:43:42;3.15;;;1.02;;
51451;SDS011;37521;52.020;-1.740;2023-09-19T03:46:10;3.20;;;1.05;;
51451;SDS011;37521;52.020;-1.740;2023-09-19T03:48:40;2.47;;;0.90;;
51451;SDS011;37521;52.020;-1.740;2023-09-19T03:51:10;1.85;;;0.65;;
51451;SDS011;37521;52.020;-1.740;2023-09-19T03:53:39;4.03;;;0.85;;
51451;SDS011;37521;52.020;-1.740;2023-09-19T03:56:09;3.10;;;0.65;;
51451;SDS011;37521;52.020;-1.740;2023-09-19T03:58:37;5.47;;;1.08;;
51451;SDS011;37521;52.020;-1.740;2023-09-19T04:01:07;4.35;;;1.00;;
51451;SDS011;37521;52.020;-1.740;2023-09-19T04:03:35;3.63;;;1.02;;
51451;SDS011;37521;52.020;-1.740;2023-09-19T04:06:15;3.13;;;1.20;;
51451;SDS011;37521;52.020;-1.740;2023-09-19T04:08:43;1.70;;;0.85;;
51451;SDS011;37521;52.020;-1.740;2023-09-19T04:11:13;5.40;;;1.30;;
51451;SDS011;37521;52.020;-1.740;2023-09-19T04:13:41;3.70;;;0.82;;
51451;SDS011;37521;52.020;-1.740;2023-09-19T04:16:10;2.63;;;1.00;;
51451;SDS011;37521;52.020;-1.740;2023-09-19T04:18:39;3.40;;;0.77;;
51451;SDS011;37521;52.020;-1.740;2023-09-19T04:21:08;1.65;;;0.60;;
51451;SDS011;37521;52.020;-1.740;2023-09-19T04:23:39;2.10;;;1.05;;
51451;SDS011;37521;52.020;-1.740;2023-09-19T04:26:07;3.70;;;1.00;;
51451;SDS011;37521;52.020;-1.740;2023-09-19T04:28:36;6.68;;;1.17;;
51451;SDS011;37521;52.020;-1.740;2023-09-19T04:31:05;2.80;;;1.05;;
51451;SDS011;37521;52.020;-1.740;2023-09-19T04:33:35;4.50;;;1.05;;
51451;SDS011;37521;52.020;-1.740;2023-09-19T04:36:04;3.47;;;0.95;;
51451;SDS011;37521;52.020;-1.740;2023-09-19T04:38:55;3.35;;;0.80;;
51451;SDS011;37521;52.020;-1.740;2023-09-19T04:41:24;3.63;;;1.05;;
51451;SDS011;37521;52.020;-1.740;2023-09-19T04:43:52;3.13;;;1.05;;
51451;SDS011;37521;52.020;-1.740;2023-09-19T04:46:22;5.30;;;0.55;;
51451;SDS011;37521;52.020;-1.740;2023-09-19T04:48:51;5.47;;;0.73;;
51451;SDS011;37521;52.020;-1.740;2023-09-19T04:51:20;4.32;;;1.02;;
51451;SDS011;37521;52.020;-1.740;2023-09-19T04:53:48;6.90;;;1.15;;
51451;SDS011;37521;52.020;-1.740;2023-09-19T04:56:18;1.20;;;0.80;;
51451;SDS011;37521;52.020;-1.740;2023-09-19T04:58:47;4.18;;;0.88;;
51451;SDS011;37521;52.020;-1.740;2023-09-19T05:01:16;3.13;;;1.05;;
51451;SDS011;37521;52.020;-1.740;2023-09-19T05:03:44;1.50;;;1.05;;
51451;SDS011;37521;52.020;-1.740;2023-09-19T05:06:16;2.47;;;0.70;;
51451;SDS011;37521;52.020;-1.740;2023-09-19T05:08:44;5.00;;;0.57;;
51451;SDS011;37521;52.020;-1.740;2023-09-19T05:11:13;1.85;;;0.55;;
51451;SDS011;37521;52.020;-1.740;2023-09-19T05:13:43;1.70;;;0.60;;
51451;SDS011;37521;52.020;-1.740;2023-09-19T05:16:11;3.55;;;0.50;;
51451;SDS011;37521;52.020;-1.740;2023-09-19T05:18:39;1.35;;;0.70;;
51451;SDS011;37521;52.020;-1.740;2023-09-19T05:21:08;2.45;;;0.50;;
51451;SDS011;37521;52.020;-1.740;2023-09-19T05:23:37;7.82;;;0.70;;
51451;SDS011;37521;52.020;-1.740;2023-09-19T05:26:06;1.40;;;0.30;;
51451;SDS011;37521;52.020;-1.740;2023-09-19T05:28:34;2.95;;;0.98;;
51451;SDS011;37521;52.020;-1.740;2023-09-19T05:31:06;3.67;;;0.52;;
51451;SDS011;37521;52.020;-1.740;2023-09-19T05:33:34;3.58;;;0.80;;
51451;SDS011;37521;52.020;-1.740;2023-09-19T05:36:03;1.83;;;0.55;;
51451;SDS011;37521;52.020;-1.740;2023-09-19T05:38:32;2.75;;;0.50;;
51451;SDS011;37521;52.020;-1.740;2023-09-19T05:41:00;0.52;;;0.52;;
51451;SDS011;37521;52.020;-1.740;2023-09-19T05:43:29;1.83;;;0.60;;
51451;SDS011;37521;52.020;-1.740;2023-09-19T05:45:59;1.27;;;0.30;;
51451;SDS011;37521;52.020;-1.740;2023-09-19T05:48:29;1.17;;;0.38;;
51451;SDS011;37521;52.020;-1.740;2023-09-19T05:50:57;2.45;;;1.00;;
51451;SDS011;37521;52.020;-1.740;2023-09-19T05:53:28;3.17;;;0.77;;
51451;SDS011;37521;52.020;-1.740;2023-09-19T05:55:56;1.65;;;0.73;;
51451;SDS011;37521;52.020;-1.740;2023-09-19T05:58:27;4.50;;;0.70;;
51451;SDS011;37521;52.020;-1.740;2023-09-19T06:00:56;0.80;;;0.80;;
51451;SDS011;37521;52.020;-1.740;2023-09-19T06:03:24;1.55;;;0.63;;
51451;SDS011;37521;52.020;-1.740;2023-09-19T06:05:54;3.60;;;0.93;;
51451;SDS011;37521;52.020;-1.740;2023-09-19T06:08:24;4.18;;;0.95;;
51451;SDS011;37521;52.020;-1.740;2023-09-19T06:10:52;4.05;;;0.70;;
51451;SDS011;37521;52.020;-1.740;2023-09-19T06:13:21;2.00;;;1.30;;
51451;SDS011;37521;52.020;-1.740;2023-09-19T06:15:50;3.47;;;1.00;;
51451;SDS011;37521;52.020;-1.740;2023-09-19T06:18:18;4.10;;;1.08;;
51451;SDS011;37521;52.020;-1.740;2023-09-19T06:20:47;3.05;;;1.00;;
51451;SDS011;37521;52.020;-1.740;2023-09-19T06:23:19;6.20;;;1.10;;
51451;SDS011;37521;52.020;-1.740;2023-09-19T06:25:49;3.25;;;0.80;;
51451;SDS011;37521;52.020;-1.740;2023-09-19T06:28:18;3.45;;;1.08;;
51451;SDS011;37521;52.020;-1.740;2023-09-19T06:30:50;2.37;;;0.70;;
51451;SDS011;37521;52.020;-1.740;2023-09-19T06:33:19;5.07;;;1.58;;
51451;SDS011;37521;52.020;-1.740;2023-09-19T06:35:48;0.73;;;0.73;;
51451;SDS011;37521;52.020;-1.740;2023-09-19T06:38:20;3.60;;;0.82;;
51451;SDS011;37521;52.020;-1.740;2023-09-19T06:40:50;1.98;;;0.98;;
51451;SDS011;37521;52.020;-1.740;2023-09-19T06:43:18;1.13;;;0.70;;
51451;SDS011;37521;52.020;-1.740;2023-09-19T06:45:47;12.05;;;1.38;;
51451;SDS011;37521;52.020;-1.740;2023-09-19T06:48:15;1.30;;;0.98;;
51451;SDS011;37521;52.020;-1.740;2023-09-19T06:50:43;3.17;;;0.88;;
51451;SDS011;37521;52.020;-1.740;2023-09-19T06:53:14;4.75;;;0.90;;
51451;SDS011;37521;52.020;-1.740;2023-09-19T06:55:45;5.60;;;1.08;;
51451;SDS011;37521;52.020;-1.740;2023-09-19T06:58:14;3.03;;;1.48;;
51451;SDS011;37521;52.020;-1.740;2023-09-19T07:00:43;4.25;;;2.50;;
51451;SDS011;37521;52.020;-1.740;2023-09-19T07:03:13;3.25;;;1.20;;
51451;SDS011;37521;52.020;-1.740;2023-09-19T07:05:43;3.13;;;1.35;;
51451;SDS011;37521;52.020;-1.740;2023-09-19T07:08:11;7.72;;;1.88;;
51451;SDS011;37521;52.020;-1.740;2023-09-19T07:10:40;1.60;;;0.98;;
51451;SDS011;37521;52.020;-1.740;2023-09-19T07:13:17;7.00;;;1.30;;
51451;SDS011;37521;52.020;-1.740;2023-09-19T07:15:46;3.13;;;1.30;;
51451;SDS011;37521;52.020;-1.740;2023-09-19T07:18:15;8.25;;;1.50;;
51451;SDS011;37521;52.020;-1.740;2023-09-19T07:20:44;3.92;;;1.60;;
51451;SDS011;37521;52.020;-1.740;2023-09-19T07:23:16;1.83;;;1.17;;
51451;SDS011;37521;52.020;-1.740;2023-09-19T07:25:45;4.93;;;1.67;;
51451;SDS011;37521;52.020;-1.740;2023-09-19T07:28:16;2.55;;;1.40;;
51451;SDS011;37521;52.020;-1.740;2023-09-19T07:30:46;5.13;;;1.50;;
51451;SDS011;37521;52.020;-1.740;2023-09-19T07:33:14;2.20;;;1.38;;
51451;SDS011;37521;52.020;-1.740;2023-09-19T07:35:45;4.20;;;1.48;;
51451;SDS011;37521;52.020;-1.740;2023-09-19T07:38:14;5.40;;;1.90;;
51451;SDS011;37521;52.020;-1.740;2023-09-19T07:40:43;4.22;;;1.48;;
51451;SDS011;37521;52.020;-1.740;2023-09-19T07:43:11;5.78;;;1.95;;
51451;SDS011;37521;52.020;-1.740;2023-09-19T07:45:43;3.65;;;1.33;;
51451;SDS011;37521;52.020;-1.740;2023-09-19T07:48:15;11.40;;;1.92;;
51451;SDS011;37521;52.020;-1.740;2023-09-19T07:50:43;7.93;;;2.13;;
51451;SDS011;37521;52.020;-1.740;2023-09-19T07:53:12;4.88;;;2.30;;
51451;SDS011;37521;52.020;-1.740;2023-09-19T07:55:43;2.00;;;1.40;;
51451;SDS011;37521;52.020;-1.740;2023-09-19T07:58:15;4.85;;;1.40;;
51451;SDS011;37521;52.020;-1.740;2023-09-19T08:00:45;4.55;;;1.55;;
51451;SDS011;37521;52.020;-1.740;2023-09-19T08:03:13;5.80;;;1.75;;
51451;SDS011;37521;52.020;-1.740;2023-09-19T08:05:44;7.78;;;2.10;;
51451;SDS011;37521;52.020;-1.740;2023-09-19T08:08:13;9.80;;;1.75;;
51451;SDS011;37521;52.020;-1.740;2023-09-19T08:10:42;5.15;;;1.45;;
51451;SDS011;37521;52.020;-1.740;2023-09-19T08:13:13;13.15;;;2.03;;
51451;SDS011;37521;52.020;-1.740;2023-09-19T08:15:45;3.25;;;1.60;;
51451;SDS011;37521;52.020;-1.740;2023-09-19T08:18:15;6.53;;;1.70;;
51451;SDS011;37521;52.020;-1.740;2023-09-19T08:20:48;3.58;;;1.30;;
51451;SDS011;37521;52.020;-1.740;2023-09-19T08:23:17;5.05;;;1.27;;
51451;SDS011;37521;52.020;-1.740;2023-09-19T08:25:47;1.67;;;1.05;;
51451;SDS011;37521;52.020;-1.740;2023-09-19T08:28:15;4.50;;;1.42;;
51451;SDS011;37521;52.020;-1.740;2023-09-19T08:30:47;2.70;;;1.40;;
51451;SDS011;37521;52.020;-1.740;2023-09-19T08:33:15;6.20;;;1.48;;
51451;SDS011;37521;52.020;-1.740;2023-09-19T08:35:44;5.55;;;1.45;;
51451;SDS011;37521;52.020;-1.740;2023-09-19T08:38:13;4.13;;;1.77;;
51451;SDS011;37521;52.020;-1.740;2023-09-19T08:40:42;8.43;;;2.15;;
51451;SDS011;37521;52.020;-1.740;2023-09-19T08:43:10;7.60;;;2.28;;
51451;SDS011;37521;52.020;-1.740;2023-09-19T08:45:39;2.22;;;1.50;;
51451;SDS011;37521;52.020;-1.740;2023-09-19T08:48:15;10.35;;;1.83;;
51451;SDS011;37521;52.020;-1.740;2023-09-19T08:50:49;4.28;;;1.27;;
51451;SDS011;37521;52.020;-1.740;2023-09-19T08:53:21;2.53;;;1.33;;
51451;SDS011;37521;52.020;-1.740;2023-09-19T08:55:59;8.35;;;1.92;;
51451;SDS011;37521;52.020;-1.740;2023-09-19T08:58:31;4.93;;;1.80;;
51451;SDS011;37521;52.020;-1.740;2023-09-19T09:01:02;7.40;;;1.58;;
51451;SDS011;37521;52.020;-1.740;2023-09-19T09:03:35;5.75;;;1.52;;
51451;SDS011;37521;52.020;-1.740;2023-09-19T09:06:06;6.28;;;1.50;;
51451;SDS011;37521;52.020;-1.740;2023-09-19T09:08:37;9.50;;;2.30;;
51451;SDS011;37521;52.020;-1.740;2023-09-19T09:11:07;4.88;;;1.67;;
51451;SDS011;37521;52.020;-1.740;2023-09-19T09:13:38;3.47;;;1.70;;
51451;SDS011;37521;52.020;-1.740;2023-09-19T09:16:08;10.02;;;2.05;;
51451;SDS011;37521;52.020;-1.740;2023-09-19T09:18:38;8.00;;;2.20;;
51451;SDS011;37521;52.020;-1.740;2023-09-19T09:21:07;5.32;;;1.88;;
51451;SDS011;37521;52.020;-1.740;2023-09-19T09:23:39;3.33;;;1.52;;
51451;SDS011;37521;52.020;-1.740;2023-09-19T09:26:08;4.03;;;1.67;;
51451;SDS011;37521;52.020;-1.740;2023-09-19T09:28:38;5.25;;;1.65;;
51451;SDS011;37521;52.020;-1.740;2023-09-19T09:31:23;6.32;;;2.35;;
51451;SDS011;37521;52.020;-1.740;2023-09-19T09:33:54;2.85;;;1.42;;
51451;SDS011;37521;52.020;-1.740;2023-09-19T09:36:33;4.50;;;1.40;;
51451;SDS011;37521;52.020;-1.740;2023-09-19T09:39:04;1.65;;;1.17;;
51451;SDS011;37521;52.020;-1.740;2023-09-19T09:41:45;2.28;;;1.08;;
51451;SDS011;37521;52.020;-1.740;2023-09-19T09:44:14;3.53;;;1.52;;
51451;SDS011;37521;52.020;-1.740;2023-09-19T09:46:44;5.07;;;1.15;;
51451;SDS011;37521;52.020;-1.740;2023-09-19T09:49:33;5.75;;;1.30;;
51451;SDS011;37521;52.020;-1.740;2023-09-19T09:52:02;1.27;;;1.13;;
51451;SDS011;37521;52.020;-1.740;2023-09-19T09:54:37;4.90;;;1.05;;
51451;SDS011;37521;52.020;-1.740;2023-09-19T09:57:09;2.17;;;1.20;;
51451;SDS011;37521;52.020;-1.740;2023-09-19T09:59:47;2.05;;;0.85;;
51451;SDS011;37521;52.020;-1.740;2023-09-19T10:02:25;2.97;;;1.02;;
51451;SDS011;37521;52.020;-1.740;2023-09-19T10:04:58;1.00;;;0.80;;
51451;SDS011;37521;52.020;-1.740;2023-09-19T10:07:36;1.75;;;0.90;;
51451;SDS011;37521;52.020;-1.740;2023-09-19T10:10:10;1.77;;;1.13;;
51451;SDS011;37521;52.020;-1.740;2023-09-19T10:12:48;1.08;;;0.88;;
51451;SDS011;37521;52.020;-1.740;2023-09-19T10:15:22;2.40;;;1.23;;
51451;SDS011;37521;52.020;-1.740;2023-09-19T10:17:58;1.05;;;0.80;;
51451;SDS011;37521;52.020;-1.740;2023-09-19T10:20:30;2.58;;;1.00;;
51451;SDS011;37521;52.020;-1.740;2023-09-19T10:23:05;2.80;;;1.50;;
51451;SDS011;37521;52.020;-1.740;2023-09-19T10:25:40;1.40;;;0.73;;
51451;SDS011;37521;52.020;-1.740;2023-09-19T10:28:10;2.72;;;0.77;;
51451;SDS011;37521;52.020;-1.740;2023-09-19T10:30:43;5.35;;;1.20;;
51451;SDS011;37521;52.020;-1.740;2023-09-19T10:35:45;3.20;;;1.17;;
51451;SDS011;37521;52.020;-1.740;2023-09-19T10:38:14;2.47;;;1.08;;
51451;SDS011;37521;52.020;-1.740;2023-09-19T10:40:48;1.88;;;1.02;;
51451;SDS011;37521;52.020;-1.740;2023-09-19T10:43:19;2.97;;;1.02;;
51451;SDS011;37521;52.020;-1.740;2023-09-19T10:45:49;2.33;;;0.75;;
51451;SDS011;37521;52.020;-1.740;2023-09-19T10:48:20;1.60;;;0.82;;
51451;SDS011;37521;52.020;-1.740;2023-09-19T10:50:57;5.03;;;1.42;;
51451;SDS011;37521;52.020;-1.740;2023-09-19T10:53:39;0.85;;;0.30;;
51451;SDS011;37521;52.020;-1.740;2023-09-19T10:56:11;4.32;;;0.85;;
51451;SDS011;37521;52.020;-1.740;2023-09-19T10:58:48;3.05;;;0.60;;
51451;SDS011;37521;52.020;-1.740;2023-09-19T11:01:16;2.83;;;0.52;;
51451;SDS011;37521;52.020;-1.740;2023-09-19T11:03:45;0.40;;;0.40;;
51451;SDS011;37521;52.020;-1.740;2023-09-19T11:06:17;8.18;;;0.75;;
51451;SDS011;37521;52.020;-1.740;2023-09-19T11:08:59;1.27;;;0.40;;
51451;SDS011;37521;52.020;-1.740;2023-09-19T11:11:49;3.15;;;1.02;;
51451;SDS011;37521;52.020;-1.740;2023-09-19T11:14:30;1.75;;;0.43;;
51451;SDS011;37521;52.020;-1.740;2023-09-19T11:23:19;3.60;;;0.70;;
51451;SDS011;37521;52.020;-1.740;2023-09-19T11:25:57;0.60;;;0.40;;
51451;SDS011;37521;52.020;-1.740;2023-09-19T11:28:32;1.45;;;0.75;;
51451;SDS011;37521;52.020;-1.740;2023-09-19T11:40:39;1.27;;;0.52;;
51451;SDS011;37521;52.020;-1.740;2023-09-19T11:43:27;1.85;;;0.20;;
51451;SDS011;37521;52.020;-1.740;2023-09-19T11:46:03;0.50;;;0.50;;
51451;SDS011;37521;52.020;-1.740;2023-09-19T11:48:33;0.32;;;0.32;;
51451;SDS011;37521;52.020;-1.740;2023-09-19T11:51:14;1.08;;;0.35;;
51451;SDS011;37521;52.020;-1.740;2023-09-19T11:53:49;1.25;;;0.40;;
51451;SDS011;37521;52.020;-1.740;2023-09-19T11:56:20;0.30;;;0.30;;
51451;SDS011;37521;52.020;-1.740;2023-09-19T11:58:52;0.30;;;0.30;;
51451;SDS011;37521;52.020;-1.740;2023-09-19T12:01:23;0.40;;;0.28;;
51451;SDS011;37521;52.020;-1.740;2023-09-19T12:03:56;0.40;;;0.40;;
51451;SDS011;37521;52.020;-1.740;2023-09-19T12:06:27;0.15;;;0.15;;
51451;SDS011;37521;52.020;-1.740;2023-09-19T12:08:56;1.02;;;0.38;;
51451;SDS011;37521;52.020;-1.740;2023-09-19T12:11:29;0.80;;;0.60;;
51451;SDS011;37521;52.020;-1.740;2023-09-19T12:14:01;1.02;;;0.10;;
51451;SDS011;37521;52.020;-1.740;2023-09-19T12:16:31;1.48;;;0.25;;
51451;SDS011;37521;52.020;-1.740;2023-09-19T12:21:56;2.25;;;0.40;;
51451;SDS011;37521;52.020;-1.740;2023-09-19T12:24:26;1.65;;;0.40;;
51451;SDS011;37521;52.020;-1.740;2023-09-19T12:27:11;0.43;;;0.40;;
51451;SDS011;37521;52.020;-1.740;2023-09-19T12:29:43;0.30;;;0.20;;
51451;SDS011;37521;52.020;-1.740;2023-09-19T12:32:13;0.43;;;0.22;;
51451;SDS011;37521;52.020;-1.740;2023-09-19T12:34:50;0.73;;;0.30;;
51451;SDS011;37521;52.020;-1.740;2023-09-19T12:37:20;1.05;;;0.55;;
51451;SDS011;37521;52.020;-1.740;2023-09-19T12:39:49;0.85;;;0.57;;
51451;SDS011;37521;52.020;-1.740;2023-09-19T12:42:22;2.17;;;0.47;;
51451;SDS011;37521;52.020;-1.740;2023-09-19T12:44:55;1.17;;;0.40;;
51451;SDS011;37521;52.020;-1.740;2023-09-19T12:47:24;5.75;;;0.50;;
51451;SDS011;37521;52.020;-1.740;2023-09-19T12:50:05;2.40;;;0.47;;
51451;SDS011;37521;52.020;-1.740;2023-09-19T12:52:40;1.98;;;0.50;;
51451;SDS011;37521;52.020;-1.740;2023-09-19T12:55:19;3.25;;;0.70;;
51451;SDS011;37521;52.020;-1.740;2023-09-19T12:57:57;2.40;;;0.95;;
51451;SDS011;37521;52.020;-1.740;2023-09-19T13:00:36;2.58;;;0.93;;
51451;SDS011;37521;52.020;-1.740;2023-09-19T13:03:09;3.60;;;0.82;;
51451;SDS011;37521;52.020;-1.740;2023-09-19T13:05:51;3.53;;;1.05;;
51451;SDS011;37521;52.020;-1.740;2023-09-19T13:08:25;2.22;;;1.02;;
51451;SDS011;37521;52.020;-1.740;2023-09-19T13:11:03;4.93;;;1.25;;
51451;SDS011;37521;52.020;-1.740;2023-09-19T13:13:39;4.40;;;1.10;;
51451;SDS011;37521;52.020;-1.740;2023-09-19T13:16:11;4.10;;;0.65;;
51451;SDS011;37521;52.020;-1.740;2023-09-19T13:18:46;7.60;;;1.60;;
51451;SDS011;37521;52.020;-1.740;2023-09-19T13:21:27;4.70;;;1.17;;
51451;SDS011;37521;52.020;-1.740;2023-09-19T13:23:58;1.90;;;1.63;;
51451;SDS011;37521;52.020;-1.740;2023-09-19T13:26:49;3.35;;;0.80;;
51451;SDS011;37521;52.020;-1.740;2023-09-19T13:29:19;3.97;;;0.60;;
51451;SDS011;37521;52.020;-1.740;2023-09-19T13:31:48;0.50;;;0.38;;
51451;SDS011;37521;52.020;-1.740;2023-09-19T13:34:18;3.75;;;0.70;;
51451;SDS011;37521;52.020;-1.740;2023-09-19T13:36:47;0.98;;;0.60;;
51451;SDS011;37521;52.020;-1.740;2023-09-19T13:39:16;4.07;;;0.75;;
51451;SDS011;37521;52.020;-1.740;2023-09-19T13:41:45;2.60;;;1.17;;
51451;SDS011;37521;52.020;-1.740;2023-09-19T13:44:14;0.98;;;0.82;;
51451;SDS011;37521;52.020;-1.740;2023-09-19T13:46:45;1.77;;;0.63;;
51451;SDS011;37521;52.020;-1.740;2023-09-19T13:49:14;4.80;;;0.57;;
51451;SDS011;37521;52.020;-1.740;2023-09-19T13:51:47;3.40;;;0.50;;
51451;SDS011;37521;52.020;-1.740;2023-09-19T13:54:15;2.30;;;0.95;;
51451;SDS011;37521;52.020;-1.740;2023-09-19T13:56:44;5.00;;;1.20;;
51451;SDS011;37521;52.020;-1.740;2023-09-19T13:59:12;3.05;;;0.80;;
51451;SDS011;37521;52.020;-1.740;2023-09-19T14:01:41;4.50;;;1.55;;
51451;SDS011;37521;52.020;-1.740;2023-09-19T14:04:11;5.70;;;1.88;;
51451;SDS011;37521;52.020;-1.740;2023-09-19T14:06:42;3.83;;;1.38;;
51451;SDS011;37521;52.020;-1.740;2023-09-19T14:09:12;5.18;;;1.77;;
51451;SDS011;37521;52.020;-1.740;2023-09-19T14:11:40;6.32;;;1.98;;
51451;SDS011;37521;52.020;-1.740;2023-09-19T14:14:09;5.60;;;1.90;;
51451;SDS011;37521;52.020;-1.740;2023-09-19T14:16:37;5.75;;;1.13;;
51451;SDS011;37521;52.020;-1.740;2023-09-19T14:19:08;9.63;;;1.90;;
51451;SDS011;37521;52.020;-1.740;2023-09-19T14:21:38;3.50;;;1.50;;
51451;SDS011;37521;52.020;-1.740;2023-09-19T14:24:07;2.75;;;1.10;;
51451;SDS011;37521;52.020;-1.740;2023-09-19T14:26:36;6.97;;;2.30;;
51451;SDS011;37521;52.020;-1.740;2023-09-19T14:29:05;3.33;;;1.98;;
51451;SDS011;37521;52.020;-1.740;2023-09-19T14:31:36;3.38;;;1.55;;
51451;SDS011;37521;52.020;-1.740;2023-09-19T14:34:06;3.20;;;0.75;;
51451;SDS011;37521;52.020;-1.740;2023-09-19T14:36:36;2.78;;;1.02;;
51451;SDS011;37521;52.020;-1.740;2023-09-19T14:39:06;6.25;;;1.73;;
51451;SDS011;37521;52.020;-1.740;2023-09-19T14:41:36;6.22;;;1.30;;
51451;SDS011;37521;52.020;-1.740;2023-09-19T14:44:04;7.28;;;1.00;;
51451;SDS011;37521;52.020;-1.740;2023-09-19T14:46:35;1.85;;;0.93;;
51451;SDS011;37521;52.020;-1.740;2023-09-19T14:49:04;1.77;;;0.75;;
51451;SDS011;37521;52.020;-1.740;2023-09-19T14:51:32;2.10;;;0.88;;
51451;SDS011;37521;52.020;-1.740;2023-09-19T14:54:04;1.13;;;0.90;;
51451;SDS011;37521;52.020;-1.740;2023-09-19T14:56:34;4.68;;;1.50;;
51451;SDS011;37521;52.020;-1.740;2023-09-19T14:59:02;5.18;;;0.73;;
51451;SDS011;37521;52.020;-1.740;2023-09-19T15:01:31;1.27;;;0.50;;
51451;SDS011;37521;52.020;-1.740;2023-09-19T15:04:00;1.38;;;0.65;;
51451;SDS011;37521;52.020;-1.740;2023-09-19T15:06:28;4.47;;;0.77;;
51451;SDS011;37521;52.020;-1.740;2023-09-19T15:08:57;1.63;;;0.90;;
51451;SDS011;37521;52.020;-1.740;2023-09-19T15:11:27;2.25;;;1.00;;
51451;SDS011;37521;52.020;-1.740;2023-09-19T15:13:55;0.90;;;0.47;;
51451;SDS011;37521;52.020;-1.740;2023-09-19T15:16:25;1.10;;;0.68;;
51451;SDS011;37521;52.020;-1.740;2023-09-19T15:18:54;1.13;;;0.52;;
51451;SDS011;37521;52.020;-1.740;2023-09-19T15:21:22;3.95;;;0.55;;
51451;SDS011;37521;52.020;-1.740;2023-09-19T15:23:51;0.60;;;0.40;;